Time,TemperatureF,DewpointF,PressureIn,WindDirection,WindDirectionDegrees,WindSpeedMPH,WindSpeedGustMPH,Humidity,HourlyPrecipIn,Conditions,Clouds,dailyrainin,SoftwareType,DateUTC
2013-03-17 00:02:00,45.0,39.0,30.24,WSW,257,6.0,13.0,80,0.00,,,0.32,,2013-03-17 07:02:00,
2013-03-17 00:11:00,45.0,39.0,30.24,WSW,257,6.0,13.0,80,0.00,,,0.32,,2013-03-17 07:11:00,
2013-03-17 00:22:00,45.0,39.0,30.25,West,269,6.0,9.0,79,0.00,,,0.32,,2013-03-17 07:22:00,
2013-03-17 00:32:00,44.0,37.0,30.25,WNW,292,3.0,10.0,77,0.00,,,0.31,,2013-03-17 07:32:00,
2013-03-17 00:42:00,44.0,37.0,30.25,WNW,292,3.0,10.0,77,0.00,,,0.31,,2013-03-17 07:42:00,
2013-03-17 00:52:00,43.0,37.0,30.25,ESE,112,1.0,5.0,80,0.00,,,0.31,,2013-03-17 07:52:00,
2013-03-17 01:02:00,41.0,37.0,30.25,ENE,65,1.0,4.0,86,0.00,,,0.31,,2013-03-17 08:02:00,
2013-03-17 01:12:00,42.0,38.0,30.25,NE,55,2.0,8.0,84,0.00,,,0.31,,2013-03-17 08:12:00,
2013-03-17 01:22:00,42.0,38.0,30.25,NE,55,2.0,8.0,84,0.00,,,0.31,,2013-03-17 08:22:00,
2013-03-17 01:32:00,42.0,39.0,30.25,West,267,8.0,13.0,88,0.00,,,0.31,,2013-03-17 08:32:00,
2013-03-17 01:42:00,42.0,39.0,30.25,West,267,8.0,13.0,88,0.00,,,0.31,,2013-03-17 08:42:00,
2013-03-17 01:52:00,44.0,39.0,30.26,West,276,6.0,12.0,81,0.00,,,0.31,,2013-03-17 08:52:00,
2013-03-17 02:02:00,44.0,37.0,30.26,West,275,3.0,11.0,76,0.00,,,0.31,,2013-03-17 09:02:00,
2013-03-17 02:11:00,44.0,37.0,30.26,West,275,3.0,11.0,76,0.00,,,0.31,,2013-03-17 09:11:00,
2013-03-17 02:22:00,43.0,37.0,30.27,NNW,337,3.0,6.0,79,0.00,,,0.31,,2013-03-17 09:22:00,
2013-03-17 02:32:00,41.0,36.0,30.27,NE,38,0.0,5.0,83,0.00,,,0.31,,2013-03-17 09:32:00,
2013-03-17 02:42:00,41.0,36.0,30.27,NE,38,0.0,5.0,83,0.00,,,0.31,,2013-03-17 09:42:00,
2013-03-17 02:52:00,40.0,37.0,30.28,ENE,78,1.0,3.0,88,0.00,,,0.31,,2013-03-17 09:52:00,
2013-03-17 03:02:00,42.0,38.0,30.28,West,278,1.0,10.0,86,0.00,,,0.31,,2013-03-17 10:02:00,
2013-03-17 03:12:00,42.0,38.0,30.28,West,278,1.0,10.0,86,0.00,,,0.31,,2013-03-17 10:12:00,
2013-03-17 03:23:00,42.0,38.0,30.29,West,276,1.0,8.0,84,0.00,,,0.31,,2013-03-17 10:23:00,
2013-03-17 03:33:00,42.0,37.0,30.29,West,262,2.0,9.0,82,0.00,,,0.30,,2013-03-17 10:33:00,
2013-03-17 03:42:00,42.0,37.0,30.29,West,262,2.0,9.0,82,0.00,,,0.30,,2013-03-17 10:42:00,
2013-03-17 03:52:00,41.0,36.0,30.29,ESE,107,0.0,4.0,83,0.00,,,0.30,,2013-03-17 10:52:00,
2013-03-17 04:02:00,40.0,37.0,30.30,West,262,0.0,4.0,88,0.00,,,0.30,,2013-03-17 11:02:00,
2013-03-17 04:12:00,40.0,37.0,30.30,West,262,0.0,4.0,88,0.00,,,0.30,,2013-03-17 11:12:00,
2013-03-17 04:22:00,41.0,37.0,30.30,East,92,2.0,5.0,87,0.00,,,0.30,,2013-03-17 11:22:00,
2013-03-17 04:32:00,40.0,37.0,30.30,ENE,67,1.0,7.0,88,0.00,,,0.30,,2013-03-17 11:32:00,
2013-03-17 04:42:00,40.0,37.0,30.30,ENE,67,1.0,7.0,88,0.00,,,0.30,,2013-03-17 11:42:00,
2013-03-17 04:52:00,39.0,36.0,30.30,ESE,122,1.0,4.0,89,0.00,,,0.30,,2013-03-17 11:52:00,
2013-03-17 05:01:00,39.0,37.0,30.29,ESE,109,1.0,3.0,91,0.00,,,0.30,,2013-03-17 12:01:00,
2013-03-17 05:12:00,39.0,37.0,30.29,ESE,109,1.0,3.0,91,0.00,,,0.30,,2013-03-17 12:12:00,
2013-03-17 05:21:00,39.0,37.0,30.30,SE,135,0.0,4.0,92,0.00,,,0.30,,2013-03-17 12:21:00,
2013-03-17 05:32:00,39.0,37.0,30.31,East,99,0.0,4.0,92,0.00,,,0.28,,2013-03-17 12:32:00,
2013-03-17 05:42:00,39.0,37.0,30.31,East,99,0.0,4.0,92,0.00,,,0.28,,2013-03-17 12:42:00,
2013-03-17 05:52:00,39.0,37.0,30.32,SSW,193,1.0,3.0,93,0.00,,,0.28,,2013-03-17 12:52:00,
2013-03-17 06:01:00,38.0,36.0,30.32,ESE,123,0.0,5.0,93,0.00,,,0.28,,2013-03-17 13:01:00,
2013-03-17 06:12:00,38.0,36.0,30.32,ESE,123,0.0,5.0,93,0.00,,,0.28,,2013-03-17 13:12:00,
2013-03-17 06:22:00,38.0,36.0,30.33,ESE,107,0.0,2.0,93,0.00,,,0.28,,2013-03-17 13:22:00,
2013-03-17 06:32:00,38.0,36.0,30.33,SSW,202,0.0,4.0,94,0.00,,,0.28,,2013-03-17 13:32:00,
2013-03-17 06:42:00,38.0,36.0,30.33,SSW,202,0.0,4.0,94,0.00,,,0.28,,2013-03-17 13:42:00,
2013-03-17 06:52:00,41.0,39.0,30.33,West,271,4.0,10.0,94,0.00,,,0.28,,2013-03-17 13:52:00,
2013-03-17 07:02:00,41.0,39.0,30.33,SSE,158,0.0,6.0,91,0.00,,,0.28,,2013-03-17 14:02:00,
2013-03-17 07:11:00,41.0,39.0,30.33,SSE,158,0.0,6.0,91,0.00,,,0.28,,2013-03-17 14:11:00,
2013-03-17 07:22:00,40.0,38.0,30.34,SW,223,1.0,8.0,91,0.00,,,0.28,,2013-03-17 14:22:00,
2013-03-17 07:32:00,39.0,37.0,30.34,ESE,104,1.0,3.0,92,0.00,,,0.28,,2013-03-17 14:32:00,
2013-03-17 07:42:00,39.0,37.0,30.34,ESE,104,1.0,3.0,92,0.00,,,0.28,,2013-03-17 14:42:00,
2013-03-17 07:52:00,39.0,37.0,30.35,ESE,102,3.0,6.0,92,0.00,,,0.28,,2013-03-17 14:52:00,
2013-03-17 08:02:00,39.0,37.0,30.35,East,91,4.0,7.0,93,0.00,,,0.28,,2013-03-17 15:02:00,
2013-03-17 08:11:00,39.0,37.0,30.35,East,91,4.0,7.0,93,0.00,,,0.28,,2013-03-17 15:11:00,
2013-03-17 08:22:00,39.0,37.0,30.35,East,96,4.0,8.0,93,0.00,,,0.28,,2013-03-17 15:22:00,
2013-03-17 08:32:00,39.0,37.0,30.35,ENE,73,4.0,9.0,93,0.00,,,0.28,,2013-03-17 15:32:00,
2013-03-17 08:42:00,39.0,37.0,30.35,ENE,73,4.0,9.0,93,0.00,,,0.28,,2013-03-17 15:42:00,
2013-03-17 08:52:00,39.0,37.0,30.35,East,98,3.0,7.0,94,0.00,,,0.28,,2013-03-17 15:52:00,
2013-03-17 09:03:00,39.0,37.0,30.36,West,271,0.0,4.0,93,0.00,,,0.28,,2013-03-17 16:03:00,
2013-03-17 09:12:00,39.0,37.0,30.36,West,271,0.0,4.0,93,0.00,,,0.28,,2013-03-17 16:12:00,
2013-03-17 09:22:00,40.0,38.0,30.36,East,94,0.0,0.0,94,0.00,,,0.28,,2013-03-17 16:22:00,
2013-03-17 09:33:00,41.0,39.0,30.36,ESE,111,1.0,4.0,94,0.00,,,0.28,,2013-03-17 16:33:00,
2013-03-17 09:42:00,41.0,39.0,30.36,ESE,111,1.0,4.0,94,0.00,,,0.28,,2013-03-17 16:42:00,
2013-03-17 09:52:00,41.0,39.0,30.36,ESE,107,1.0,5.0,94,0.00,,,0.28,,2013-03-17 16:52:00,
2013-03-17 10:02:00,41.0,39.0,30.36,East,84,3.0,8.0,94,0.00,,,0.28,,2013-03-17 17:02:00,
2013-03-17 10:12:00,41.0,39.0,30.36,East,84,3.0,8.0,94,0.00,,,0.28,,2013-03-17 17:12:00,
2013-03-17 10:22:00,42.0,40.0,30.36,ENE,70,4.0,9.0,94,0.00,,,0.28,,2013-03-17 17:22:00,
2013-03-17 10:32:00,43.0,41.0,30.36,NE,45,5.0,8.0,93,0.00,,,0.28,,2013-03-17 17:32:00,
2013-03-17 10:42:00,43.0,41.0,30.36,NE,45,5.0,8.0,93,0.00,,,0.28,,2013-03-17 17:42:00,
2013-03-17 10:52:00,43.0,41.0,30.36,East,81,3.0,7.0,91,0.00,,,0.28,,2013-03-17 17:52:00,
2013-03-17 11:01:00,43.0,41.0,30.36,ESE,103,3.0,8.0,91,0.00,,,0.28,,2013-03-17 18:01:00,
2013-03-17 11:12:00,43.0,41.0,30.36,ESE,103,3.0,8.0,91,0.00,,,0.28,,2013-03-17 18:12:00,
2013-03-17 11:22:00,45.0,42.0,30.36,SSE,163,1.0,4.0,89,0.00,,,0.28,,2013-03-17 18:22:00,
2013-03-17 11:32:00,47.0,43.0,30.36,SW,229,2.0,4.0,85,0.00,,,0.28,,2013-03-17 18:32:00,
2013-03-17 11:42:00,47.0,43.0,30.36,SW,229,2.0,4.0,85,0.00,,,0.28,,2013-03-17 18:42:00,
2013-03-17 11:52:00,46.0,41.0,30.36,West,281,0.0,4.0,81,0.00,,,0.28,,2013-03-17 18:52:00,
2013-03-17 12:02:00,47.0,41.0,30.36,WNW,298,2.0,4.0,79,0.00,,,0.28,,2013-03-17 19:02:00,
2013-03-17 12:12:00,47.0,41.0,30.36,WNW,298,2.0,4.0,79,0.00,,,0.28,,2013-03-17 19:12:00,
2013-03-17 12:22:00,47.0,40.0,30.36,West,275,1.0,6.0,77,0.00,,,0.28,,2013-03-17 19:22:00,
2013-03-17 12:32:00,47.0,40.0,30.36,SW,225,1.0,4.0,76,0.00,,,0.27,,2013-03-17 19:32:00,
2013-03-17 12:41:00,47.0,40.0,30.36,SW,225,1.0,4.0,76,0.00,,,0.27,,2013-03-17 19:41:00,
2013-03-17 12:52:00,48.0,40.0,30.35,SW,229,2.0,5.0,73,0.00,,,0.27,,2013-03-17 19:52:00,
2013-03-17 13:02:00,49.0,41.0,30.35,WSW,253,2.0,7.0,74,0.00,,,0.27,,2013-03-17 20:02:00,
2013-03-17 13:11:00,49.0,41.0,30.35,WSW,253,2.0,7.0,74,0.00,,,0.27,,2013-03-17 20:11:00,
2013-03-17 13:22:00,49.0,40.0,30.35,SW,222,4.0,6.0,70,0.00,,,0.27,,2013-03-17 20:22:00,
2013-03-17 13:32:00,49.0,41.0,30.35,WSW,242,2.0,6.0,75,0.00,,,0.21,,2013-03-17 20:32:00,
2013-03-17 13:42:00,49.0,41.0,30.35,WSW,242,2.0,6.0,75,0.00,,,0.21,,2013-03-17 20:42:00,
2013-03-17 13:52:00,49.0,40.0,30.35,SSW,212,3.0,6.0,71,0.00,,,0.21,,2013-03-17 20:52:00,
2013-03-17 14:02:00,48.0,39.0,30.35,WSW,240,2.0,6.0,71,0.00,,,0.21,,2013-03-17 21:02:00,
2013-03-17 14:11:00,48.0,39.0,30.35,WSW,240,2.0,6.0,71,0.00,,,0.21,,2013-03-17 21:11:00,
2013-03-17 14:22:00,49.0,41.0,30.34,West,271,2.0,6.0,73,0.00,,,0.21,,2013-03-17 21:22:00,
2013-03-17 14:32:00,50.0,41.0,30.34,WNW,292,4.0,7.0,70,0.00,,,0.14,,2013-03-17 21:32:00,
2013-03-17 14:42:00,50.0,41.0,30.34,WNW,292,4.0,7.0,70,0.00,,,0.14,,2013-03-17 21:42:00,
2013-03-17 14:52:00,49.0,39.0,30.34,West,259,4.0,9.0,68,0.00,,,0.14,,2013-03-17 21:52:00,
2013-03-17 15:02:00,49.0,40.0,30.34,WNW,285,2.0,7.0,72,0.00,,,0.14,,2013-03-17 22:02:00,
2013-03-17 15:12:00,49.0,39.0,30.33,West,263,3.0,8.0,68,0.00,,,0.14,,2013-03-17 22:12:00,
2013-03-17 15:23:00,49.0,39.0,30.33,West,263,3.0,8.0,68,0.00,,,0.14,,2013-03-17 22:23:00,
2013-03-17 15:33:00,50.0,40.0,30.33,West,274,3.0,7.0,68,0.00,,,0.07,,2013-03-17 22:33:00,
2013-03-17 15:42:00,50.0,40.0,30.33,West,274,3.0,7.0,68,0.00,,,0.07,,2013-03-17 22:42:00,
2013-03-17 15:52:00,49.0,38.0,30.33,West,271,4.0,7.0,65,0.00,,,0.07,,2013-03-17 22:52:00,
2013-03-17 16:02:00,48.0,37.0,30.33,West,274,5.0,7.0,66,0.00,,,0.07,,2013-03-17 23:02:00,
2013-03-17 16:12:00,48.0,37.0,30.33,West,274,5.0,7.0,66,0.00,,,0.07,,2013-03-17 23:12:00,
2013-03-17 16:22:00,47.0,38.0,30.33,WNW,294,3.0,6.0,70,0.00,,,0.07,,2013-03-17 23:22:00,
2013-03-17 16:32:00,48.0,38.0,30.33,WSW,255,3.0,7.0,67,0.00,,,0.05,,2013-03-17 23:32:00,
2013-03-17 16:42:00,48.0,38.0,30.33,WSW,255,3.0,7.0,67,0.00,,,0.05,,2013-03-17 23:42:00,
2013-03-17 16:52:00,48.0,38.0,30.33,West,267,4.0,6.0,69,0.00,,,0.05,,2013-03-17 23:52:00,
2013-03-17 17:02:00,47.0,38.0,30.34,West,276,4.0,7.0,71,0.00,,,0.05,,2013-03-18 00:02:00,
2013-03-17 17:11:00,47.0,38.0,30.34,West,276,4.0,7.0,71,0.00,,,0.05,,2013-03-18 00:11:00,
2013-03-17 17:22:00,47.0,38.0,30.34,West,277,2.0,7.0,71,0.00,,,0.05,,2013-03-18 00:22:00,
2013-03-17 17:32:00,47.0,38.0,30.34,WNW,284,4.0,7.0,71,0.00,,,0.04,,2013-03-18 00:32:00,
2013-03-17 17:42:00,47.0,38.0,30.34,WNW,284,4.0,7.0,71,0.00,,,0.04,,2013-03-18 00:42:00,
2013-03-17 17:52:00,47.0,37.0,30.34,West,275,3.0,6.0,67,0.00,,,0.04,,2013-03-18 00:52:00,
2013-03-17 18:01:00,47.0,37.0,30.34,West,270,2.0,6.0,69,0.00,,,0.04,,2013-03-18 01:01:00,
2013-03-17 18:12:00,47.0,37.0,30.34,West,270,2.0,6.0,69,0.00,,,0.04,,2013-03-18 01:12:00,
2013-03-17 18:22:00,46.0,37.0,30.34,NNW,327,1.0,4.0,71,0.00,,,0.04,,2013-03-18 01:22:00,
2013-03-17 18:32:00,46.0,38.0,30.34,West,266,2.0,6.0,74,0.00,,,0.04,,2013-03-18 01:32:00,
2013-03-17 18:42:00,46.0,38.0,30.34,West,266,2.0,6.0,74,0.00,,,0.04,,2013-03-18 01:42:00,
2013-03-17 18:52:00,46.0,39.0,30.33,West,281,0.0,3.0,75,0.00,,,0.04,,2013-03-18 01:52:00,
2013-03-17 19:02:00,46.0,39.0,30.33,North,11,0.0,3.0,75,0.00,,,0.04,,2013-03-18 02:02:00,
2013-03-17 19:12:00,46.0,39.0,30.33,North,11,0.0,3.0,75,0.00,,,0.04,,2013-03-18 02:12:00,
2013-03-17 19:22:00,45.0,38.0,30.32,NNW,336,0.0,1.0,76,0.00,,,0.04,,2013-03-18 02:22:00,
2013-03-17 19:32:00,45.0,39.0,30.32,SE,144,0.0,3.0,78,0.00,,,0.04,,2013-03-18 02:32:00,
2013-03-17 19:42:00,45.0,39.0,30.32,SE,144,0.0,3.0,78,0.00,,,0.04,,2013-03-18 02:42:00,
2013-03-17 19:52:00,44.0,38.0,30.32,ESE,105,1.0,5.0,78,0.00,,,0.04,,2013-03-18 02:52:00,
2013-03-17 20:02:00,44.0,38.0,30.32,East,90,1.0,3.0,80,0.00,,,0.04,,2013-03-18 03:02:00,
2013-03-17 20:11:00,44.0,38.0,30.32,East,90,1.0,3.0,80,0.00,,,0.04,,2013-03-18 03:11:00,
2013-03-17 20:21:00,43.0,38.0,30.32,East,82,0.0,3.0,81,0.00,,,0.04,,2013-03-18 03:21:00,
2013-03-17 20:32:00,42.0,37.0,30.32,East,96,1.0,3.0,83,0.00,,,0.04,,2013-03-18 03:32:00,
2013-03-17 20:42:00,42.0,37.0,30.32,East,96,1.0,3.0,83,0.00,,,0.04,,2013-03-18 03:42:00,
2013-03-17 20:52:00,42.0,38.0,30.32,ESE,121,2.0,3.0,86,0.00,,,0.04,,2013-03-18 03:52:00,
2013-03-17 21:02:00,42.0,38.0,30.32,ENE,78,2.0,5.0,87,0.00,,,0.04,,2013-03-18 04:02:00,
2013-03-17 21:12:00,42.0,38.0,30.32,ENE,78,2.0,5.0,87,0.00,,,0.04,,2013-03-18 04:12:00,
2013-03-17 21:22:00,42.0,38.0,30.32,ESE,103,1.0,5.0,87,0.00,,,0.04,,2013-03-18 04:22:00,
2013-03-17 21:33:00,42.0,39.0,30.32,SE,132,0.0,3.0,88,0.00,,,0.00,,2013-03-18 04:33:00,
2013-03-17 21:42:00,42.0,39.0,30.32,SE,132,0.0,3.0,88,0.00,,,0.00,,2013-03-18 04:42:00,
2013-03-17 21:52:00,42.0,39.0,30.32,SE,138,2.0,4.0,89,0.00,,,0.00,,2013-03-18 04:52:00,
2013-03-17 22:02:00,41.0,38.0,30.32,ESE,102,3.0,7.0,89,0.00,,,0.00,,2013-03-18 05:02:00,
2013-03-17 22:12:00,41.0,38.0,30.32,ESE,102,3.0,7.0,89,0.00,,,0.00,,2013-03-18 05:12:00,
2013-03-17 22:22:00,41.0,38.0,30.32,East,92,2.0,7.0,89,0.00,,,0.00,,2013-03-18 05:22:00,
2013-03-17 22:32:00,41.0,38.0,30.33,East,80,3.0,6.0,89,0.00,,,0.00,,2013-03-18 05:32:00,
2013-03-17 22:42:00,41.0,38.0,30.33,East,80,3.0,6.0,89,0.00,,,0.00,,2013-03-18 05:42:00,
2013-03-17 22:52:00,41.0,38.0,30.32,ENE,63,2.0,5.0,89,0.00,,,0.00,,2013-03-18 05:52:00,
2013-03-17 23:02:00,41.0,38.0,30.33,ENE,70,3.0,7.0,89,0.00,,,0.00,,2013-03-18 06:02:00,
2013-03-17 23:12:00,41.0,38.0,30.33,ENE,70,3.0,7.0,89,0.00,,,0.00,,2013-03-18 06:12:00,
2013-03-17 23:22:00,41.0,38.0,30.33,East,98,3.0,8.0,89,0.00,,,0.00,,2013-03-18 06:22:00,
2013-03-17 23:32:00,41.0,38.0,30.33,East,84,4.0,7.0,90,0.00,,,0.00,,2013-03-18 06:32:00,
2013-03-17 23:42:00,41.0,38.0,30.33,East,84,4.0,7.0,90,0.00,,,0.00,,2013-03-18 06:42:00,
2013-03-17 23:52:00,41.0,38.0,30.32,ESE,119,4.0,8.0,90,0.00,,,0.00,,2013-03-18 06:52:00,